Time;durP1;ratioP1;P1;durP2;ratioP2;P2;SDS_P1;SDS_P2;PMS_P1;PMS_P2;Temp;Humidity;BMP_temperature;BMP_pressure;BME280_temperature;BME280_humidity;BME280_pressure;Samples;Min_cycle;Max_cycle;Signal;HPM_P1;HPM_P2
2022/04/12 00:00:19;;;;;;;1.75;1.40;;;;;;;6.45;100.00;99552.31;6181285;23;20020;-63
2022/04/12 00:03:06;;;;;;;1.50;1.30;;;;;;;6.30;100.00;99519.97;6195095;23;20047;-62
2022/04/12 00:05:51;;;;;;;2.58;1.60;;;;;;;6.50;100.00;99536.50;6182431;23;20032;-63
2022/04/12 00:08:35;;;;;;;2.13;1.50;;;;;;;6.47;100.00;99529.50;6193519;23;20379;-65
2022/04/12 00:11:20;;;;;;;1.65;1.50;;;;;;;6.48;100.00;99546.19;6191844;23;20024;-62
2022/04/12 00:14:04;;;;;;;2.75;1.65;;;;;;;6.31;100.00;99555.94;6193567;23;20020;-62
2022/04/12 00:19:02;;;;;;;1.70;1.45;;;;;;;6.26;100.00;99561.25;6183051;23;20023;-61
2022/04/12 00:19:53;;;;;;;2.47;1.92;;;;;;;6.41;100.00;99570.81;6193947;23;20339;-62
2022/04/12 00:22:39;;;;;;;1.98;1.77;;;;;;;6.39;100.00;99567.31;6192124;23;20071;-63
2022/04/12 00:25:25;;;;;;;3.58;1.70;;;;;;;6.29;100.00;99577.00;6161099;23;20024;-63
2022/04/12 00:28:09;;;;;;;2.25;1.90;;;;;;;6.17;100.00;99579.72;6193755;23;20024;-64
2022/04/12 00:30:53;;;;;;;2.38;2.10;;;;;;;6.30;100.00;99578.78;6183378;23;20023;-62
2022/04/12 00:33:38;;;;;;;2.30;2.00;;;;;;;6.35;100.00;99571.72;6212058;23;20067;-63
2022/04/12 00:36:22;;;;;;;1.87;1.67;;;;;;;6.29;100.00;99550.69;6191718;23;20020;-63
2022/04/12 00:39:07;;;;;;;2.75;2.08;;;;;;;6.53;100.00;99571.59;6194713;23;20466;-62
2022/04/12 00:41:51;;;;;;;2.77;1.93;;;;;;;6.11;100.00;99513.09;6195188;23;20016;-61
2022/04/12 00:44:35;;;;;;;2.08;1.67;;;;;;;6.34;100.00;99537.50;6182680;23;20020;-62
2022/04/12 00:47:20;;;;;;;1.67;1.57;;;;;;;6.36;100.00;99528.69;6192778;23;20027;-62
2022/04/12 00:50:05;;;;;;;2.50;1.63;;;;;;;6.31;100.00;99519.09;6193723;23;20100;-63
2022/04/12 00:52:52;;;;;;;2.42;2.17;;;;;;;6.02;100.00;99490.34;6195351;23;20020;-64
2022/04/12 00:55:37;;;;;;;2.40;2.20;;;;;;;6.22;100.00;99482.31;6196569;23;20066;-61
2022/04/12 00:58:23;;;;;;;2.53;2.00;;;;;;;6.46;100.00;99503.19;6194001;23;20023;-62
2022/04/12 01:01:07;;;;;;;2.53;2.00;;;;;;;6.53;100.00;99496.97;6184944;23;20024;-61
2022/04/12 01:03:52;;;;;;;2.42;1.98;;;;;;;6.51;100.00;99497.00;6195941;23;20331;-64
2022/04/12 01:06:37;;;;;;;3.43;1.97;;;;;;;6.35;100.00;99470.78;6195943;23;20067;-63
2022/04/12 01:09:26;;;;;;;2.40;1.90;;;;;;;6.64;100.00;99498.63;6185829;23;20294;-62
2022/04/12 01:12:11;;;;;;;2.95;2.20;;;;;;;6.45;100.00;99457.53;6182888;23;20084;-62
2022/04/12 01:15:09;;;;;;;2.10;1.90;;;;;;;6.45;100.00;99461.94;6195557;23;20079;-64
2022/04/12 01:17:55;;;;;;;2.13;1.83;;;;;;;6.52;100.00;99463.63;6187091;23;20020;-64
2022/04/12 01:20:39;;;;;;;2.20;2.00;;;;;;;6.56;100.00;99468.84;6186009;23;20023;-61
2022/04/12 01:23:30;;;;;;;4.32;2.10;;;;;;;6.34;100.00;99469.94;6189664;23;20070;-62
2022/04/12 01:26:14;;;;;;;2.30;2.10;;;;;;;6.42;100.00;99470.75;6180713;23;20075;-61
2022/04/12 01:28:59;;;;;;;2.38;2.13;;;;;;;6.47;100.00;99482.09;6178609;23;20082;-72
2022/04/12 01:31:43;;;;;;;2.40;2.05;;;;;;;6.49;100.00;99485.56;6179612;23;20027;-62
2022/04/12 01:34:29;;;;;;;2.97;1.83;;;;;;;6.60;100.00;99493.41;6188427;23;20048;-63
2022/04/12 01:37:13;;;;;;;2.25;2.00;;;;;;;6.72;100.00;99496.78;6190816;23;20137;-61
2022/04/12 01:39:57;;;;;;;2.97;1.90;;;;;;;6.73;100.00;99479.25;6178466;23;20024;-62
2022/04/12 01:42:42;;;;;;;1.85;1.60;;;;;;;6.82;100.00;99479.16;6158556;23;20036;-61
2022/04/12 01:45:26;;;;;;;1.83;1.65;;;;;;;6.73;100.00;99474.81;6190775;23;20044;-61
2022/04/12 01:48:10;;;;;;;2.33;1.38;;;;;;;6.90;100.00;99479.94;6190587;23;20027;-62
2022/04/12 01:50:55;;;;;;;1.77;1.58;;;;;;;6.82;100.00;99426.44;6191423;23;20137;-63
2022/04/12 01:53:39;;;;;;;2.17;1.83;;;;;;;6.73;100.00;99431.81;6190494;23;20075;-77
2022/04/12 01:56:24;;;;;;;2.00;1.80;;;;;;;6.60;100.00;99460.03;6195346;23;20247;-63
2022/04/12 01:59:08;;;;;;;2.10;1.88;;;;;;;6.59;100.00;99473.22;6192420;23;20052;-62
2022/04/12 02:01:53;;;;;;;1.90;1.70;;;;;;;6.65;100.00;99465.25;6180640;23;20490;-63
2022/04/12 02:04:37;;;;;;;1.88;1.58;;;;;;;6.65;100.00;99429.25;6178976;23;20155;-61
2022/04/12 02:07:22;;;;;;;2.45;1.63;;;;;;;6.81;100.00;99417.66;6189062;23;20020;-62
2022/04/12 02:10:08;;;;;;;2.20;1.83;;;;;;;6.66;100.00;99432.75;6180355;23;20032;-65
2022/04/12 02:12:53;;;;;;;2.17;1.90;;;;;;;6.52;100.00;99477.66;6175498;23;20379;-65
2022/04/12 02:15:37;;;;;;;2.00;1.80;;;;;;;6.55;100.00;99456.56;6188057;23;20039;-64
2022/04/12 02:18:21;;;;;;;2.15;1.95;;;;;;;6.59;100.00;99444.22;6175497;23;20287;-62
2022/04/12 02:21:06;;;;;;;2.90;2.25;;;;;;;6.79;100.00;99452.81;6177793;23;20023;-64
2022/04/12 02:23:50;;;;;;;2.90;2.15;;;;;;;6.81;100.00;99461.59;6176710;23;20230;-62
2022/04/12 02:26:35;;;;;;;2.30;2.05;;;;;;;6.83;100.00;99450.16;6188217;23;20091;-63
2022/04/12 02:29:19;;;;;;;2.40;2.20;;;;;;;6.84;100.00;99437.84;6189078;23;20095;-63
2022/04/12 02:32:04;;;;;;;3.58;2.40;;;;;;;6.57;100.00;99425.81;6190170;23;20024;-62
2022/04/12 02:34:49;;;;;;;3.47;2.38;;;;;;;6.72;100.00;99409.00;6189194;23;20335;-63
2022/04/12 02:37:33;;;;;;;2.80;2.35;;;;;;;6.86;100.00;99431.69;6186885;23;20039;-64
2022/04/12 02:40:18;;;;;;;2.38;2.17;;;;;;;6.59;100.00;99445.13;6190104;23;20454;-61
2022/04/12 02:43:02;;;;;;;2.95;2.65;;;;;;;6.70;100.00;99461.69;6187874;23;20509;-61
2022/04/12 02:45:47;;;;;;;3.25;2.63;;;;;;;6.81;100.00;99466.88;6178546;23;20097;-61
2022/04/12 02:48:31;;;;;;;4.10;3.03;;;;;;;6.86;100.00;99457.16;6178800;23;20044;-62
2022/04/12 02:51:15;;;;;;;4.07;3.30;;;;;;;6.90;100.00;99456.22;6180085;23;20068;-62
2022/04/12 02:54:00;;;;;;;4.10;3.53;;;;;;;7.02;100.00;99467.53;6168013;23;20020;-62
2022/04/12 02:56:44;;;;;;;5.23;3.07;;;;;;;7.01;100.00;99446.44;6188587;23;20024;-65
2022/04/12 02:59:28;;;;;;;4.10;3.30;;;;;;;6.99;100.00;99422.75;6190015;23;20618;-62
2022/04/12 03:02:13;;;;;;;3.72;3.25;;;;;;;7.17;100.00;99442.75;6187737;23;20020;-61
2022/04/12 03:04:57;;;;;;;5.18;3.33;;;;;;;7.16;100.00;99441.84;6190316;23;20016;-64
2022/04/12 03:07:42;;;;;;;5.03;3.50;;;;;;;6.92;100.00;99417.56;6189290;23;20534;-63
2022/04/12 03:10:26;;;;;;;5.38;3.72;;;;;;;7.01;100.00;99451.72;6190169;23;20024;-62
2022/04/12 03:13:11;;;;;;;4.65;4.03;;;;;;;7.17;100.00;99458.56;6180347;23;20023;-63
2022/04/12 03:15:56;;;;;;;7.65;4.75;;;;;;;7.18;100.00;99458.56;6178531;23;20396;-72
2022/04/12 03:18:40;;;;;;;5.50;4.30;;;;;;;7.19;100.00;99460.28;6212004;23;20055;-62
2022/04/12 03:21:24;;;;;;;7.25;5.13;;;;;;;7.14;100.00;99445.41;6193942;23;20032;-63
2022/04/12 03:24:09;;;;;;;7.68;5.40;;;;;;;7.25;100.00;99449.69;6192055;23;20092;-61
2022/04/12 03:26:53;;;;;;;7.05;4.88;;;;;;;7.06;100.00;99423.53;6184330;23;20506;-61
2022/04/12 03:29:38;;;;;;;7.68;5.75;;;;;;;7.26;100.00;99464.59;6183977;23;20068;-62
2022/04/12 03:32:22;;;;;;;8.02;5.65;;;;;;;7.30;100.00;99461.03;6182929;23;20019;-63
2022/04/12 03:35:07;;;;;;;8.30;5.78;;;;;;;7.24;100.00;99445.28;6194284;23;20035;-63
2022/04/12 03:37:51;;;;;;;8.30;6.28;;;;;;;7.41;100.00;99474.09;6194519;23;20331;-63
2022/04/12 03:40:36;;;;;;;11.80;6.47;;;;;;;7.40;100.00;99473.22;6194042;23;20023;-62
2022/04/12 03:43:20;;;;;;;10.93;6.22;;;;;;;7.34;100.00;99457.47;6182896;23;20023;-63
2022/04/12 03:46:04;;;;;;;11.27;6.53;;;;;;;7.38;100.00;99461.81;6194085;23;20507;-63
2022/04/12 03:48:49;;;;;;;10.95;6.60;;;;;;;7.39;100.00;99468.84;6193760;23;20023;-65
2022/04/12 03:51:35;;;;;;;11.40;6.70;;;;;;;7.22;100.00;99454.09;6182911;23;20400;-63
2022/04/12 03:54:19;;;;;;;11.90;6.97;;;;;;;7.34;100.00;99454.84;6182451;23;20052;-63
2022/04/12 03:57:04;;;;;;;11.90;7.07;;;;;;;7.43;100.00;99457.34;6195496;23;20043;-62
2022/04/12 03:59:49;;;;;;;11.30;7.47;;;;;;;7.46;100.00;99443.25;6194770;23;20080;-62
2022/04/12 04:02:36;;;;;;;12.93;7.32;;;;;;;7.25;100.00;99414.53;6195793;23;20071;-63
2022/04/12 04:05:21;;;;;;;10.18;7.13;;;;;;;7.58;100.00;99465.06;6185528;23;20347;-62
2022/04/12 04:08:06;;;;;;;13.63;7.85;;;;;;;7.53;100.00;99429.97;6185149;23;20020;-62
2022/04/12 04:10:51;;;;;;;12.15;8.40;;;;;;;7.58;100.00;99451.88;6185563;23;20044;-64
2022/04/12 04:13:36;;;;;;;13.25;7.88;;;;;;;7.47;100.00;99427.41;6194680;23;20020;-63
2022/04/12 04:16:20;;;;;;;11.98;7.82;;;;;;;7.82;100.00;99459.47;6173510;23;20341;-62
2022/04/12 04:19:08;;;;;;;13.30;8.15;;;;;;;7.80;100.00;99455.97;6185649;23;20047;-63
2022/04/12 04:21:55;;;;;;;12.55;8.43;;;;;;;7.76;100.00;99469.25;6195570;23;20075;-63
2022/04/12 04:24:39;;;;;;;12.80;8.77;;;;;;;7.65;100.00;99444.75;6189973;23;20316;-64
2022/04/12 04:27:28;;;;;;;14.63;9.48;;;;;;;7.88;100.00;99477.00;6195993;23;20023;-63
2022/04/12 04:30:13;;;;;;;13.57;8.68;;;;;;;7.94;100.00;99472.50;6195900;23;20075;-63
2022/04/12 04:32:57;;;;;;;17.00;9.10;;;;;;;7.97;100.00;99477.75;6184263;23;20024;-64
2022/04/12 04:35:42;;;;;;;14.32;9.52;;;;;;;8.07;100.00;99474.06;6184111;23;20020;-62
2022/04/12 04:38:26;;;;;;;12.77;9.15;;;;;;;7.99;100.00;99464.53;6194756;23;20379;-64
2022/04/12 04:41:10;;;;;;;14.63;8.73;;;;;;;7.98;100.00;99473.31;6194743;23;20031;-65
2022/04/12 04:43:55;;;;;;;13.88;8.57;;;;;;;8.04;100.00;99467.97;6163566;23;20023;-63
2022/04/12 04:46:39;;;;;;;15.85;8.10;;;;;;;8.01;100.00;99476.78;6183806;23;20023;-66
2022/04/12 04:49:25;;;;;;;12.43;8.13;;;;;;;8.12;100.00;99469.56;6195311;23;20454;-63
2022/04/12 04:52:10;;;;;;;10.95;6.80;;;;;;;8.13;100.00;99476.63;6195310;23;20438;-65
2022/04/12 04:54:54;;;;;;;12.97;7.30;;;;;;;8.09;100.00;99468.75;6163225;23;20071;-62
2022/04/12 04:57:40;;;;;;;13.68;8.30;;;;;;;8.14;100.00;99467.78;6195439;23;20020;-63
2022/04/12 05:00:29;;;;;;;14.65;8.45;;;;;;;8.22;100.00;99472.97;6194182;23;20024;-64
2022/04/12 05:03:14;;;;;;;11.20;6.97;;;;;;;8.14;100.00;99472.19;6195195;23;20097;-65
2022/04/12 05:05:58;;;;;;;12.00;7.30;;;;;;;8.09;100.00;99466.09;6184264;23;20323;-65
2022/04/12 05:08:43;;;;;;;10.38;6.72;;;;;;;8.19;100.00;99468.59;6195626;23;20036;-64
2022/04/12 05:11:27;;;;;;;10.80;6.90;;;;;;;8.27;100.00;99464.09;6194903;23;20289;-63
2022/04/12 05:14:11;;;;;;;12.77;7.47;;;;;;;8.33;100.00;99453.44;6183549;23;20020;-63
2022/04/12 05:16:56;;;;;;;11.02;6.50;;;;;;;8.39;100.00;99457.75;6195298;23;20051;-63
2022/04/12 05:19:40;;;;;;;11.83;7.03;;;;;;;8.52;100.00;99454.88;6195318;23;20052;-63
2022/04/12 05:22:26;;;;;;;11.00;6.35;;;;;;;8.61;100.00;99457.38;6183876;23;20450;-62
2022/04/12 05:25:10;;;;;;;11.82;7.10;;;;;;;8.69;100.00;99467.78;6163225;23;20071;-62
2022/04/12 05:27:56;;;;;;;12.02;6.85;;;;;;;8.73;100.00;99465.09;6185510;23;20371;-63
2022/04/12 05:30:41;;;;;;;11.52;6.55;;;;;;;8.76;100.00;99475.63;6195400;23;20063;-63
2022/04/12 05:33:25;;;;;;;9.68;6.10;;;;;;;8.79;100.00;99486.09;6195121;23;20020;-62
2022/04/12 05:36:09;;;;;;;13.30;6.30;;;;;;;8.80;100.00;99479.94;6195388;23;20360;-63
2022/04/12 05:38:54;;;;;;;9.38;6.18;;;;;;;8.81;100.00;99486.97;6195274;23;20092;-63
2022/04/12 05:41:38;;;;;;;10.07;5.80;;;;;;;8.75;100.00;99483.56;6183763;23;20083;-62
2022/04/12 05:44:23;;;;;;;8.75;5.97;;;;;;;8.86;100.00;99497.44;6195008;23;20466;-64
2022/04/12 05:47:12;;;;;;;9.30;6.28;;;;;;;8.84;100.00;99488.69;6185016;23;20056;-63
2022/04/12 05:49:57;;;;;;;9.45;6.20;;;;;;;8.91;100.00;99483.25;6184912;23;20024;-62
2022/04/12 05:52:43;;;;;;;11.60;6.75;;;;;;;9.10;100.00;99491.75;6193326;23;20055;-62
2022/04/12 05:55:28;;;;;;;10.88;6.53;;;;;;;9.14;100.00;99475.75;6194851;23;20407;-62
2022/04/12 05:58:12;;;;;;;14.07;7.30;;;;;;;9.17;100.00;99451.03;6194621;23;20023;-63
2022/04/12 06:00:57;;;;;;;10.85;6.93;;;;;;;9.11;100.00;99449.38;6193356;23;20020;-64
2022/04/12 06:03:41;;;;;;;12.70;6.95;;;;;;;9.43;100.00;99484.00;6194004;23;20039;-63
2022/04/12 06:06:27;;;;;;;12.45;6.82;;;;;;;9.55;100.00;99481.09;6195147;23;20019;-63
2022/04/12 06:09:12;;;;;;;11.95;7.05;;;;;;;9.58;100.00;99481.03;6162740;23;20132;-63
2022/04/12 06:11:57;;;;;;;11.63;6.72;;;;;;;9.71;100.00;99479.03;6194503;23;20067;-63
2022/04/12 06:14:41;;;;;;;10.18;6.97;;;;;;;9.78;100.00;99477.13;6195419;23;20024;-63
2022/04/12 06:17:30;;;;;;;10.65;6.97;;;;;;;9.91;100.00;99474.19;6194690;23;20020;-66
2022/04/12 06:20:17;;;;;;;10.13;6.68;;;;;;;9.83;100.00;99475.22;6172913;23;20024;-65
2022/04/12 06:23:02;;;;;;;10.45;6.57;;;;;;;10.01;100.00;99470.41;6183496;23;20093;-63
2022/04/12 06:25:46;;;;;;;9.55;6.45;;;;;;;10.19;100.00;99475.31;6194582;23;20016;-63
2022/04/12 06:28:32;;;;;;;12.63;7.25;;;;;;;10.20;100.00;99447.06;6185375;23;20020;-64
2022/04/12 06:31:16;;;;;;;9.52;6.32;;;;;;;10.25;100.00;99458.41;6172320;23;20092;-63
2022/04/12 06:34:01;;;;;;;10.63;7.07;;;;;;;10.01;100.00;99445.72;6194185;23;20359;-62
2022/04/12 06:36:45;;;;;;;10.35;6.82;;;;;;;9.99;100.00;99442.22;6183684;23;20434;-62
2022/04/12 06:39:29;;;;;;;10.25;6.60;;;;;;;10.18;100.00;99470.94;6195569;23;20106;-63
2022/04/12 06:42:14;;;;;;;11.73;7.57;;;;;;;10.14;100.00;99478.97;6183845;23;20020;-63
2022/04/12 06:44:58;;;;;;;10.48;6.80;;;;;;;10.09;100.00;99457.03;6184512;23;20475;-63
2022/04/12 06:47:43;;;;;;;10.40;6.83;;;;;;;10.20;100.00;99477.06;6195169;23;20024;-63
2022/04/12 06:50:28;;;;;;;10.90;6.68;;;;;;;10.37;100.00;99485.50;6194795;23;20375;-62
2022/04/12 06:53:12;;;;;;;10.90;6.70;;;;;;;10.30;100.00;99452.09;6183355;23;20279;-63
2022/04/12 06:55:56;;;;;;;10.40;6.60;;;;;;;10.56;100.00;99475.31;6194247;23;20454;-63
2022/04/12 06:58:42;;;;;;;11.85;6.80;;;;;;;10.76;100.00;99475.69;6184816;23;20117;-63
2022/04/12 07:01:27;;;;;;;10.80;6.97;;;;;;;10.87;100.00;99460.34;6184565;23;20042;-62
2022/04/12 07:04:11;;;;;;;10.35;7.00;;;;;;;10.87;100.00;99455.06;6193172;23;20078;-64
2022/04/12 07:06:56;;;;;;;10.43;6.95;;;;;;;10.98;100.00;99456.53;6193471;23;20067;-63
2022/04/12 07:09:40;;;;;;;;;;;;;;;11.13;100.00;99473.81;6183470;23;20023;-64
2022/04/12 07:12:25;;;;;;;11.60;7.05;;;;;;;10.87;100.00;99445.31;6204296;23;20019;-63
2022/04/12 07:15:10;;;;;;;11.07;6.95;;;;;;;11.07;100.00;99474.00;6194657;23;20335;-63
2022/04/12 07:17:55;;;;;;;12.70;6.78;;;;;;;11.01;100.00;99452.91;6184771;23;20056;-66
2022/04/12 07:20:39;;;;;;;12.93;7.95;;;;;;;11.07;100.00;99463.38;6162075;23;20036;-63
2022/04/12 07:23:23;;;;;;;10.60;7.32;;;;;;;11.07;100.00;99479.31;6182893;23;20383;-63
2022/04/12 07:26:08;;;;;;;14.00;7.93;;;;;;;10.99;100.00;99446.81;6183382;23;20458;-62
2022/04/12 07:28:53;;;;;;;11.55;7.32;;;;;;;11.20;100.00;99480.72;6194180;23;20083;-63
2022/04/12 07:31:37;;;;;;;12.30;7.40;;;;;;;11.16;100.00;99460.47;6195064;23;20024;-63
2022/04/12 07:34:21;;;;;;;12.05;7.75;;;;;;;11.24;100.00;99456.69;6196097;23;20451;-63
2022/04/12 07:37:05;;;;;;;12.90;8.02;;;;;;;11.42;100.00;99487.16;6195636;23;20071;-63
2022/04/12 07:39:50;;;;;;;11.60;7.55;;;;;;;11.63;100.00;99491.91;6196632;23;20104;-62
2022/04/12 07:42:35;;;;;;;9.05;6.57;;;;;;;11.78;100.00;99487.00;6186051;23;20035;-64
2022/04/12 07:45:19;;;;;;;12.80;7.70;;;;;;;11.64;100.00;99467.97;6195060;23;20028;-64
2022/04/12 07:48:04;;;;;;;11.85;7.85;;;;;;;11.85;100.00;99503.63;6196360;23;20690;-64
2022/04/12 07:50:48;;;;;;;10.18;7.28;;;;;;;11.75;100.00;99481.78;6195781;23;20052;-63
2022/04/12 07:53:33;;;;;;;12.00;7.45;;;;;;;11.87;100.00;99508.00;6194833;23;20451;-63
2022/04/12 07:56:17;;;;;;;9.07;6.93;;;;;;;12.02;100.00;99504.00;6196076;23;20448;-63
2022/04/12 07:59:02;;;;;;;11.02;7.85;;;;;;;12.10;100.00;99489.56;6186193;23;20020;-64
2022/04/12 08:01:47;;;;;;;12.10;8.60;;;;;;;12.07;100.00;99472.88;6142590;23;20020;-62
2022/04/12 08:04:32;;;;;;;12.32;8.80;;;;;;;12.22;100.00;99493.66;6186000;23;20019;-64
2022/04/12 08:07:16;;;;;;;12.40;8.45;;;;;;;12.21;100.00;99492.78;6163889;23;20020;-66
2022/04/12 08:10:01;;;;;;;12.95;8.55;;;;;;;12.24;100.00;99479.41;6196184;23;20327;-64
2022/04/12 08:12:47;;;;;;;15.35;9.25;;;;;;;12.14;100.00;99479.72;6184068;23;20024;-64
2022/04/12 08:15:31;;;;;;;13.88;9.27;;;;;;;12.20;100.00;99498.16;6186476;23;20055;-63
2022/04/12 08:18:16;;;;;;;14.63;9.40;;;;;;;12.04;100.00;99503.06;6196295;23;20075;-64
2022/04/12 08:21:01;;;;;;;13.75;9.23;;;;;;;11.86;100.00;99500.06;6184785;23;20048;-63
2022/04/12 08:23:45;;;;;;;16.25;9.32;;;;;;;11.68;100.00;99513.88;6195909;23;20047;-64
2022/04/12 08:26:30;;;;;;;15.50;9.80;;;;;;;11.87;100.00;99496.50;6184753;23;20114;-64
2022/04/12 08:29:14;;;;;;;17.60;9.32;;;;;;;12.09;100.00;99482.53;6184549;23;20019;-64
2022/04/12 08:31:59;;;;;;;13.90;9.15;;;;;;;12.54;100.00;99496.19;6195788;23;20486;-63
2022/04/12 08:34:45;;;;;;;13.30;9.52;;;;;;;12.73;100.00;99502.63;6163213;23;20023;-63
2022/04/12 08:37:29;;;;;;;16.75;10.82;;;;;;;12.89;100.00;99504.72;6186544;23;20064;-63
2022/04/12 08:40:14;;;;;;;18.83;12.63;;;;;;;13.20;100.00;99489.50;6198238;23;20021;-61
2022/04/12 08:42:59;;;;;;;17.42;11.73;;;;;;;13.63;100.00;99476.38;6167236;23;20388;-62
2022/04/12 08:45:45;;;;;;;18.67;12.77;;;;;;;13.95;100.00;99469.81;6201032;23;20015;-64
2022/04/12 08:48:30;;;;;;;18.58;12.65;;;;;;;13.88;100.00;99472.78;6198091;23;20040;-63
2022/04/12 08:51:15;;;;;;;22.13;13.98;;;;;;;14.10;100.00;99463.91;6195271;23;20023;-63
2022/04/12 08:54:01;;;;;;;19.67;12.65;;;;;;;14.82;100.00;99466.31;6195801;23;20031;-64
2022/04/12 08:56:48;;;;;;;20.05;13.68;;;;;;;15.54;100.00;99476.50;6173641;23;20039;-63
2022/04/12 08:59:33;;;;;;;19.10;12.98;;;;;;;15.43;100.00;99467.25;6184052;23;20103;-64
2022/04/12 09:02:17;;;;;;;23.83;14.18;;;;;;;15.19;100.00;99482.47;6194796;23;20023;-64
2022/04/12 09:05:02;;;;;;;24.13;13.15;;;;;;;15.01;100.00;99464.59;6193638;23;20027;-63
2022/04/12 09:07:47;;;;;;;22.08;13.68;;;;;;;14.77;100.00;99486.97;6182936;23;20506;-63
2022/04/12 09:10:33;;;;;;;;;;;;;;;14.90;100.00;99479.31;6183341;23;20407;-63
2022/04/12 09:13:17;;;;;;;21.20;13.57;;;;;;;14.92;100.00;99474.78;6170816;23;19915;-63
2022/04/12 09:16:08;;;;;;;21.85;14.80;;;;;;;15.21;100.00;99477.09;6192906;23;20024;-65
2022/04/12 09:18:52;;;;;;;22.95;14.45;;;;;;;15.50;100.00;99484.75;6181242;23;20032;-65
2022/04/12 09:21:46;;;;;;;19.33;13.73;;;;;;;15.88;100.00;99473.19;6183853;23;20485;-64
2022/04/12 09:24:30;;;;;;;20.10;14.00;;;;;;;16.15;100.00;99472.78;6182639;23;20023;-64
2022/04/12 09:27:16;;;;;;;24.77;14.63;;;;;;;16.46;100.00;99473.06;6183778;23;20019;-63
2022/04/12 09:30:04;;;;;;;25.08;15.60;;;;;;;16.57;100.00;99478.75;6194789;23;20517;-64
2022/04/12 09:32:50;;;;;;;25.55;16.30;;;;;;;16.23;100.00;99469.72;6185401;23;20040;-63
2022/04/12 09:35:35;;;;;;;26.13;16.38;;;;;;;16.00;100.00;99470.81;6194133;23;20442;-63
2022/04/12 09:38:31;;;;;;;23.85;15.55;;;;;;;15.87;100.00;99490.16;6195427;23;20024;-64
2022/04/12 09:41:24;;;;;;;24.23;15.13;;;;;;;15.73;100.00;99496.13;6178545;23;20060;-64
2022/04/12 09:44:09;;;;;;;23.75;15.88;;;;;;;15.34;100.00;99487.16;6188503;23;20040;-64
2022/04/12 09:46:55;;;;;;;27.67;16.67;;;;;;;15.20;100.00;99492.25;6180351;23;20067;-68
2022/04/12 09:49:48;;;;;;;25.45;16.60;;;;;;;15.42;100.00;99489.56;6189818;23;20020;-78
2022/04/12 09:52:32;;;;;;;27.73;17.60;;;;;;;15.57;100.00;99494.19;6178441;23;20024;-65
2022/04/12 09:55:35;;;;;;;31.25;17.52;;;;;;;15.90;100.00;99500.72;6188078;23;20055;-64
2022/04/12 09:58:22;;;;;;;25.95;16.50;;;;;;;16.19;100.00;99502.91;6176935;23;20025;-69
2022/04/12 10:01:09;;;;;;;23.83;16.20;;;;;;;16.15;100.00;99495.97;6180219;23;20016;-64
2022/04/12 10:03:59;;;;;;;26.48;16.00;;;;;;;16.15;100.00;99506.69;6188068;23;20020;-65
2022/04/12 10:06:45;;;;;;;28.73;16.15;;;;;;;16.14;100.00;99500.44;6178538;23;20027;-63
2022/04/12 10:09:36;;;;;;;22.95;14.82;;;;;;;16.19;100.00;99505.59;6157530;23;20075;-64
2022/04/12 10:12:20;;;;;;;25.73;15.55;;;;;;;16.21;100.00;99506.38;6185907;23;20020;-63
2022/04/12 10:15:07;;;;;;;22.27;14.30;;;;;;;16.25;100.00;99510.63;6189864;23;20024;-63
2022/04/12 10:17:52;;;;;;;26.83;15.57;;;;;;;16.21;100.00;99490.31;6189923;23;20024;-64
2022/04/12 10:20:39;;;;;;;24.42;16.17;;;;;;;16.44;100.00;99503.50;6188472;23;20044;-64
2022/04/12 10:23:25;;;;;;;31.95;15.85;;;;;;;16.52;100.00;99506.69;6188661;23;20019;-64
2022/04/12 10:26:11;;;;;;;27.17;16.13;;;;;;;16.13;100.00;99490.69;6177666;23;20020;-64
2022/04/12 10:29:00;;;;;;;28.00;15.13;;;;;;;16.88;100.00;99518.28;6178492;23;20092;-64
2022/04/12 10:31:58;;;;;;;24.45;15.20;;;;;;;17.52;100.00;99514.09;6189585;23;20430;-64
2022/04/12 10:35:02;;;;;;;23.30;14.10;;;;;;;17.72;100.00;99519.28;6154919;23;20024;-66
2022/04/12 10:37:50;;;;;;;26.10;15.25;;;;;;;17.16;100.00;99511.47;6179309;23;20075;-66
2022/04/12 10:40:35;;;;;;;25.23;14.52;;;;;;;17.08;100.00;99524.41;6178033;23;20024;-65
2022/04/12 10:43:33;;;;;;;28.60;14.23;;;;;;;16.65;100.00;99516.75;6185390;23;20024;-65
2022/04/12 10:46:18;;;;;;;21.45;15.02;;;;;;;16.32;100.00;99491.56;6188072;23;20071;-64
2022/04/12 10:49:05;;;;;;;;;;;;;;;16.59;100.00;99509.03;6180153;23;20051;-64
2022/04/12 10:52:00;;;;;;;29.88;15.82;;;;;;;18.30;100.00;99506.28;6187276;23;19911;-66
2022/04/12 10:54:48;;;;;;;25.50;14.53;;;;;;;18.96;100.00;99502.50;6189626;23;20036;-65
2022/04/12 10:57:34;;;;;;;24.83;15.48;;;;;;;18.97;100.00;99499.75;6179952;23;20367;-64
2022/04/12 11:00:22;;;;;;;22.73;13.82;;;;;;;18.98;100.00;99498.78;6186858;23;20327;-65
2022/04/12 11:03:08;;;;;;;22.10;14.32;;;;;;;18.40;100.00;99480.72;6178554;23;20047;-64
2022/04/12 11:05:55;;;;;;;23.38;14.88;;;;;;;18.64;100.00;99501.69;6188244;23;20047;-64
2022/04/12 11:08:45;;;;;;;22.17;13.98;;;;;;;19.64;100.00;99497.50;6192012;23;20092;-72
2022/04/12 11:11:40;;;;;;;23.27;14.27;;;;;;;19.76;100.00;99493.16;6159632;23;20112;-65
2022/04/12 11:14:32;;;;;;;24.05;14.18;;;;;;;19.00;100.00;99487.94;6188121;23;20020;-65
2022/04/12 11:17:19;;;;;;;26.05;13.85;;;;;;;18.39;100.00;99457.50;6191383;23;20024;-65
2022/04/12 11:20:04;;;;;;;23.60;15.25;;;;;;;17.95;100.00;99471.53;6190151;23;20024;-65
2022/04/12 11:22:56;;;;;;;22.65;14.98;;;;;;;18.00;100.00;99482.03;6187779;23;20048;-76
2022/04/12 11:25:50;;;;;;;19.65;13.73;;;;;;;18.34;100.00;99476.53;6181092;23;20024;-65
2022/04/12 11:28:35;;;;;;;20.90;13.88;;;;;;;18.29;100.00;99467.84;6181716;23;20458;-63
2022/04/12 11:31:21;;;;;;;24.85;15.02;;;;;;;18.07;100.00;99461.94;6178917;23;20044;-67
2022/04/12 11:34:07;;;;;;;22.35;13.52;;;;;;;18.16;100.00;99461.44;6191526;23;20028;-66
2022/04/12 11:37:05;;;;;;;22.58;13.30;;;;;;;18.12;100.00;99470.63;6136077;23;20379;-65
2022/04/12 11:39:49;;;;;;;23.30;13.75;;;;;;;18.21;100.00;99440.56;6180314;23;20028;-64
2022/04/12 11:42:33;;;;;;;20.35;14.15;;;;;;;17.65;100.00;99449.03;6191439;23;20051;-64
2022/04/12 11:45:30;;;;;;;18.90;13.75;;;;;;;17.47;100.00;99433.06;6177936;23;20023;-71
2022/04/12 11:48:14;;;;;;;21.13;14.15;;;;;;;17.65;100.00;99464.28;6180137;23;20020;-64
2022/04/12 11:51:06;;;;;;;21.48;14.15;;;;;;;17.66;100.00;99469.56;6190231;23;20505;-63
2022/04/12 11:53:50;;;;;;;19.52;14.23;;;;;;;17.27;100.00;99465.38;6187460;23;20036;-67
2022/04/12 11:56:35;;;;;;;21.63;13.55;;;;;;;17.30;100.00;99484.88;6191567;23;20315;-64
2022/04/12 11:59:19;;;;;;;20.00;13.20;;;;;;;17.31;100.00;99469.63;6188905;23;20039;-65
2022/04/12 12:02:06;;;;;;;20.85;13.38;;;;;;;17.57;100.00;99470.03;6191477;23;20020;-66
2022/04/12 12:04:56;;;;;;;19.27;13.27;;;;;;;17.71;100.00;99477.34;6181504;23;20147;-63
2022/04/12 12:07:40;;;;;;;24.38;12.73;;;;;;;17.65;100.00;99470.47;6190422;23;20063;-75
2022/04/12 12:10:24;;;;;;;22.92;13.43;;;;;;;17.20;100.00;99439.84;6159090;23;20055;-65
2022/04/12 12:13:09;;;;;;;24.88;14.15;;;;;;;17.31;100.00;99464.28;6156629;23;20079;-64
2022/04/12 12:15:53;;;;;;;21.15;12.15;;;;;;;17.24;100.00;99455.69;6189422;23;20072;-66
2022/04/12 12:18:41;;;;;;;19.00;12.75;;;;;;;17.25;100.00;99459.25;6135481;23;20159;-66
2022/04/12 12:21:30;;;;;;;19.58;12.73;;;;;;;17.51;100.00;99461.44;6158621;23;20281;-64
2022/04/12 12:24:14;;;;;;;27.35;14.13;;;;;;;17.44;100.00;99465.38;6180763;23;20020;-65
2022/04/12 12:26:59;;;;;;;25.55;15.90;;;;;;;17.34;100.00;99473.03;6179099;23;20019;-70
2022/04/12 12:29:46;;;;;;;23.25;15.10;;;;;;;17.31;100.00;99470.50;6189137;23;20040;-64
2022/04/12 12:32:32;;;;;;;23.05;15.32;;;;;;;17.44;100.00;99471.63;6187098;23;20028;-64
2022/04/12 12:35:17;;;;;;;19.80;14.10;;;;;;;17.64;100.00;99470.56;6190976;23;20039;-65
2022/04/12 12:38:12;;;;;;;26.83;15.32;;;;;;;17.73;100.00;99480.81;6190135;23;20039;-67
2022/04/12 12:40:58;;;;;;;22.37;14.97;;;;;;;17.40;100.00;99480.78;6187629;23;20020;-64
2022/04/12 12:43:42;;;;;;;25.25;15.38;;;;;;;17.38;100.00;99476.41;6180913;23;20070;-65
2022/04/12 12:46:29;;;;;;;20.15;14.77;;;;;;;17.55;100.00;99482.66;6178775;23;20024;-66